Aviation Digital Data Service (ADDS)

Output produced by METARs form (0853 UTC 17 November 2018)
found at http://www.aviationweather.gov/metar/data/
 
UNAA 170830Z 01002MPS CAVOK M12/M16 Q1032 R02/490145 NOSIG RMK QFE751
TAF UNAA 170750Z 1709/1809 05003MPS 9999 SCT015CB 
     TEMPO 1710/1715 3300 BR FU 
     FM171500 02002MPS 3100 -SHSN BR FEW005 BKN011CB 
     TEMPO 1721/1803 1000 -SHSN BR 
     BECMG 1803/1805 4000 -SHSN
       
URWA 170830Z 07007MPS 9999 SCT040 BKN/// 02/M06 Q1030 R09/010070 NOSIG RMK QFE774/1032
TAF COR URWA 170800Z 1709/1718 08006G12MPS 9999 BKN030 
     TEMPO 1714/1718 06003G08MPS
       
USCC 170830Z 29005MPS 4200 -SHSN BKN010CB M02/M04 Q1021 R27/690035 TEMPO 0700 +SHSN VV004 RMK QFE746
TAF USCC 170800Z 1709/1809 28005G10MPS 5000 -SHSN BKN011CB 
     TEMPO 1709/1715 30007G15MPS 1600 -SHSN BKN007CB 
     BECMG 1715/1717 23003G08MPS 
     TEMPO 1717/1809 3100 -SHSN BR
       
UNBB 170830Z 18005MPS 9999 -SN SCT040 M06/M09 Q1025 R24/490540 NOSIG RMK QFE747
TAF UNBB 170800Z 1709/1809 18003G08MPS 3100 -SHSN BKN011CB 
     TEMPO 1709/1809 15008MPS 0600 +SHSN DRSN BKN002 BKN011CB
       
UWKE 170830Z 23008MPS 9999 BKN012 M02/M06 Q1027 R21/090070 NOSIG RMK QFE753/1004
TAF UWKE 170745Z 1709/1809 25006G12MPS 9999 OVC011 
     TEMPO 1709/1718 27009G14MPS 2100 -SN -FZDZ OVC003 
     TEMPO 1718/1806 26008G14MPS 2100 -SNRA OVC005
       
UUOB 170830Z 05004MPS CAVOK 00/M12 Q1037 R11/010060 NOSIG
TAF UUOB 170800Z 1709/1718 04005G10MPS CAVOK
       
URMO 170830Z 24002MPS 9999 SCT007 BKN021 03/02 Q1024 R09/010070 NOSIG RMK QFE724/0966
TAF URMO 170800Z 1709/1718 27003G08MPS 9999 BKN006 OVC015 
     TEMPO 1709/1715 3100 -RA BR BKN005 OVC011
       
TAF ULPB 170800Z 1709/1718 25007G12MPS 6000 BKN012 BKN017 
     TEMPO 1709/1715 26008G15MPS 3100 -SHRA BKN011 BKN017CB 
     BECMG 1715/1717 30007G14MPS 
     TEMPO 1715/1718 3100 -SHRA BKN011 BKN017CB
       
USPP 170830Z 26004MPS 9999 OVC009 01/M01 Q1023 R21/450250 TEMPO OVC006 RMK QFE756
TAF USPP 170758Z 1709/1809 25004G09MPS 9999 OVC011 
     TEMPO 1709/1712 3100 -SNRA 
     BECMG 1715/1717 3100 -SN BR 
     BECMG 1805/1807 8000 -SN
       
UIBB 170830Z 25005MPS 220V290 9999 FEW030 M20/M25 Q1025 R30/820550 NOSIG RMK QFE725/0967
TAF UIBB 170800Z 1709/1809 26005MPS 6000 -SHSN BKN016CB
       
UUBP 170830Z VRB01MPS CAVOK M00/M10 Q1041 R34/CLRD70 NOSIG RMK QFE762/1017
TAF UUBP 170750Z 1709/1718 VRB01MPS CAVOK
       
UWKS 170830Z 26006MPS 9999 SCT015 M00/M05 Q1029 R24/010060 NOSIG RMK QFE757
TAF UWKS 170749Z 1709/1718 25006G13MPS 5000 -SHSNRA BKN011 BKN015CB 
     TEMPO 1712/1718 3100 -SHSNRA BKN009 BKN013CB
       
UUOO 170830Z VRB01MPS CAVOK 00/M16 Q1039 R30/090070 NOSIG RMK QFE765
TAF UUOO 170800Z 1709/1718 VRB01MPS CAVOK
       
URWW 170830Z 08010MPS CAVOK 01/M09 Q1034 R06/010070 NOSIG
TAF URWW 170800Z 1709/1718 08007G13MPS 9999 BKN020CB BKN100 
     TEMPO 1709/1715 06011G16MPS 5000 -SHSN BLSN 
     TEMPO 1715/1718 06009G15MPS 3100 -SHSN BLSN BKN011 BKN020CB BKN100
       
UHBB 170830Z 27002MPS CAVOK M09/M18 Q1018 R36/090060 NOSIG RMK QFE746/0995
TAF UHBB 170745Z 1709/1809 31003MPS CAVOK 
     FM171200 23003MPS 9999 SCT020
       
UIII 170830Z 33005MPS 9999 FEW050CB M14/M20 Q1028 R30/850350 NOSIG RMK QFE726/0968
TAF UIII 170800Z 1709/1809 32003MPS 9999 SCT020CB 
     TEMPO 1709/1802 2000 FU BR
       
UIAA 170830Z 26006G11MPS 9999 NSC M08/M20 Q1016 R29/410160 NOSIG RMK QFE703/0938
TAF UIAA 170800Z 1709/1809 27006G13MPS 9999 SCT030CB 
     TEMPO 1712/1803 20003G08MPS
       
UWKD 170830Z 27005MPS 9999 OVC013 M01/M06 Q1029 R29/60D NOSIG RMK QFE760/1014
TAF UWKD 170756Z 1709/1809 26007G13MPS 9999 BKN015 TXM00/1709Z TNM01/1714Z 
     TEMPO 1709/1715 28006MPS 5000 -SNRA OVC011 
     FM171500 26007G13MPS 5000 BR OVC011 
     TEMPO 1715/1718 28007MPS 3100 -FZDZ BKN004 
     TEMPO 1718/1806 2000 SHSNRA BKN003 BKN012CB 
     BECMG 1800/1802 23005G12MPS
       
UNEE 170830Z 12001MPS CAVOK M18/M20 Q1028 R23/891032 NOSIG RMK QFE748
TAF UNEE 170800Z 1709/1809 12003MPS 9999 SCT020 
     TEMPO 1712/1806 3100 -SHSN BKN011CB
       
UHSS 170830Z 24003MPS 9999 -SHSN SCT040CB M02/M07 Q1012 R01/70D NOSIG RMK QFE758/1010
TAF UHSS 170800Z 1709/1815 27003MPS 9999 BKN030CB 
     TEMPO 1709/1721 -SHSN 
     BECMG 1722/1724 26008MPS SCT040CB
       
UMKK 170830Z VRB01MPS 9000 NSC 02/00 Q1043 R24/60D NOSIG RMK QFE781/1041
TAF UMKK 170800Z 1709/1809 21003MPS 6000 SCT011 
     TEMPO 1712/1720 25003G08MPS 3100 BR 
     BECMG 1720/1722 29005G10MPS OVC011 
     TEMPO 1722/1806 34007G12MPS 3100 -DZRA BKN006 
     BECMG 1807/1809 02008G13MPS BKN015 SCT020CB
       
UHWW 170830Z 07001MPS 9999 NSC M01/M09 Q1022 R25L/0///70 NOSIG RMK QFE765
TAF UHWW 170800Z 1709/1809 VRB01MPS 9999 BKN030 
     BECMG 1713/1715 3500 -SHSN BR BKN011 BKN020CB 
     FM180100 34003MPS 9999 SCT030
       
USSS 170830Z 27006MPS 9999 -SHSN BKN016CB OVC034 M01/M03 Q1020 R26R/150040 NOSIG RMK QFE744/0993
TAF USSS 170759Z 1709/1809 26006G14MPS 6000 -SHSN BKN011 SCT020CB 
     FM171500 24003G10MPS 3100 -SN OVC011
       
UNKL 170830Z 13001MPS CAVOK M14/M19 Q1032 R29/810260 NOSIG RMK QFE748
TAF UNKL 170754Z 1709/1809 VRB01MPS 9999 SCT040 
     BECMG 1714/1716 3100 BR SCT011 
     FM180300 09003MPS 9999 SCT040
       
UWWW 170830Z 23002MPS CAVOK 00/M10 Q1032 R33/CLRD60 NOSIG RMK QFE763/1018
TAF UWWW 170752Z 1709/1809 26003G09MPS 9999 BKN015 TX02/1711Z TNM03/1802Z 
     TEMPO 1709/1809 23006G13MPS 3100 -SHSNRA BR BKN011CB
       
USCM 170830Z 28007MPS 9999 BKN040CB 02/M08 Q1023 R36/090060 TEMPO 29012MPS RMK QFE728
TAF USCM 170800Z 1709/1718 30005G10MPS 9999 BKN020CB 
     TEMPO 1709/1718 30007G15MPS 3100 -SHSN BKN011CB
       
URMM 170830Z 10003MPS 9999 BKN004 OVC020 00/M00 Q1026 R12/650144 TEMPO 1000 SHSNRA BKN002 BKN011CB RMK MT OBSC QFE741/0988
TAF COR URMM 170758Z 1709/1809 08003G08MPS 5000 -SHSN BKN005 BKN011CB TX01/1712Z
TNM00/1709Z 
     TEMPO 1709/1809 VRB01MPS 3100 -SHSNRA BR BKN003 BKN011CB
       
UIUU 170830Z 29006MPS 260V320 9999 BKN033CB M11/M19 Q1025 R26/810555 NOSIG RMK QFE724/0966
TAF UIUU 170800Z 1709/1809 31008G13MPS 9999 BKN030CB 
     TEMPO 1709/1806 27003G08MPS 3100 -SHSN OVC015CB
       
ULMM 170830Z 27002MPS 210V340 9000 -SHRA SCT038CB 04/01 Q1010 R31/290055 NOSIG RMK QFE750
TAF ULMM 170750Z 1709/1809 26003G08MPS 6000 -SHRA BKN011CB 
     TEMPO 1709/1712 30003G08MPS 4000 -SHRASN 
     BECMG 1712/1713 02005G10MPS 
     TEMPO 1713/1724 36008G16MPS 3100 -SHSNRA BKN006 BKN011CB 
     FM180000 34003MPS 9999 BKN011 
     TEMPO 1800/1809 30003MPS -SHSN BKN011CB
       
URMN 170830Z 00000MPS 9999 BKN008 BKN017CB 02/02 Q1024 R24/210155 NOSIG RMK MT OBSC QFE731
TAF URMN 170800Z 1709/1718 02003G08MPS 3100 BR OVC005 
     TEMPO 1709/1715 0500 DZ FG OVC002
       
USNN 170830Z 14003MPS 9000 -SN OVC024 M14/M16 Q1023 R21/490551 NOSIG RMK QFE762
TAF USNN 170800Z 1709/1809 14003MPS 4000 -SN OVC015 
     TEMPO 1709/1715 16005MPS 2000 SN BKN007
       
UHHH 170830Z 25007MPS CAVOK M07/M14 Q1015 R23L/850345 NOSIG RMK QFE755/1006
TAF UHHH 170748Z 1709/1815 25008MPS CAVOK
       
UWOO 170830Z 24003MPS CAVOK M01/M12 Q1032 R26/60D NOSIG RMK QFE763/1018
TAF UWOO 170747Z 1709/1809 27003G08MPS 9999 SCT020CB TX01/1710Z TNM05/1803Z 
     TEMPO 1709/1809 24006G11MPS 3100 -SHSN BLSN BKN011CB
       
UWOR 170800Z 28009MPS CAVOK M02/M09 Q1028 R25/810055 NOSIG RMK QFE747/0996
TAF UWOR 170750Z 1709/1718 27007G12MPS 9999 SCT020CB 
     TEMPO 1709/1718 29008G14MPS 3100 -SHSN BLSN BKN011CB
       
URKK 170830Z 06005MPS 9999 OVC007 02/00 Q1027 R05R/290060 NOSIG RMK QFE767
TAF URKK 170758Z 1709/1809 04005G10MPS 9999 BKN011 BKN020CB 
     TEMPO 1709/1718 3100 -SHRA BKN005 BKN020CB 
     FM171800 34003G08MPS 3100 BR BKN011 
     TEMPO 1718/1806 1000 FZDZ OVC002
       
ULOO 170830Z 22005MPS P5000 OVC006 01/00 Q1038 R19/090065 NOSIG RMK OBST OBSC QFE774
TAF ULOO 170800Z 1709/1718 23005G10MPS 3100 BR BKN006 BKN015 
     TEMPO 1709/1715 24006G12MPS 1800 -DZ BR BKN003 OVC015 
     FM171500 28006G11MPS 4000 BR BKN007 BKN015 
     TEMPO 1715/1718 30005G11MPS 2100 -SHRA BKN006 BKN015CB
       
ULLI 170830Z 24005MPS 9999 BKN017 07/05 Q1029 R88/090060 NOSIG
TAF ULLI 170800Z 1709/1809 27007G12MPS 6000 BKN015 
     TEMPO 1709/1715 28008G15MPS 4000 -SHRA BKN011 BKN015CB 
     TEMPO 1715/1724 32008G15MPS 4000 -SHRA BKN011 BKN015CB 
     BECMG 1800/1802 35007G12MPS 
     TEMPO 1802/1809 02008G15MPS 4000 -SHRA BKN011 BKN015CB
       
USTR 170830Z 32003MPS 280V350 4000 -SHSN BKN009 OVC025CB M02/M03 Q1018 R21/451043 NOSIG RMK QFE754/1005
TAF USTR 170733Z 1709/1809 31005MPS 4000 -SHSN BKN007 BKN020CB 
     FM171300 VRB01MPS 3000 BR BKN004 BKN015 
     TEMPO 1713/1724 0500 FZFG VV003 
     BECMG 1800/1801 20007MPS 
     TEMPO 1801/1809 2100 -SHSN BR BKN004 BKN015CB
       
UUEE 170830Z 25006MPS CAVOK 01/M06 Q1035 R24C/190051 R24L/190051 NOSIG
TAF UUEE 170755Z 1709/1809 24006G13MPS 9999 SCT030 TX02/1809Z TN00/1715Z 
     BECMG 1713/1715 5000 -SN OVC011 
     TEMPO 1715/1809 2000 SHSN BKN004 BKN011CB 
     BECMG 1803/1807 30003MPS
       
URMT 170830Z 11003MPS 0500 0450W R07/0750U -SN FZFG VV001 M01/M01 Q1025 R07/290155 NOSIG RMK QBB050 OBST OBSC QFE729
TAF URMT 170800Z 1709/1718 09005G12MPS 0300 FZDZ FZFG OVC001 
     TEMPO 1709/1718 1000 -SNRA BR OVC002
       
URSS 170830Z 07002MPS 5000 -SHRA BKN015 OVC040CB 10/09 Q1026 R02/290055 R06/290055 NOSIG RMK R06/07002MPS MT OBSC QFE768
TAF URSS 170757Z 1709/1809 15008G14MPS 5000 -SHRA BKN011 BKN020CB OVC100 
     TEMPO 1709/1718 VRB11G18MPS 2200 -TSRA BKN007 BKN020CB OVC100 
     BECMG 1718/1719 04005MPS 
     TEMPO 1719/1809 VRB07G12MPS -TSRA
       
UHMM 170830Z 00000MPS 9999 OVC043 M13/M14 Q1012 R10/82//45 NOSIG RMK QFE744
TAF UHMM 170753Z 1709/1815 06003MPS 9999 BKN030 OVC070 
     TEMPO 1709/1720 3100 BR BKN011 
     FM172000 02003G11MPS 9999 SCT015 OVC020CB 
     TEMPO 1720/1815 3100 -SHSN BR OVC015CB
       
UWGG 170830Z 24004MPS 9999 BKN009 M01/M04 Q1031 R18L/090060 NOSIG
TAF UWGG 170758Z 1709/1809 24003MPS 9999 BKN010 TX01/1712Z TNM01/1718Z 
     TEMPO 1709/1714 25005G11MPS 
     FM171400 27003MPS 6000 -SHSNRA BKN009 BKN015CB 
     TEMPO 1714/1721 2500 -SHSN BKN005 BKN012CB
       
USRR 170830Z 10003MPS 050V130 9999 OVC007 M11/M12 Q1021 R25/450345 NOSIG RMK OBST OBSC QFE761
TAF USRR 170755Z 1709/1809 16003MPS 4000 BR OVC007 
     TEMPO 1709/1712 2000 SN BR OVC005 
     TEMPO 1712/1721 0900 FZFG VV002
       
UUYY 170830Z 20002MPS 9999 -DZ OVC005 01/01 Q1017 R18/29//51 TEMPO 1000 SHSNRA BR BKN015CB RMK QBB150 QFE754/1006
TAF UUYY 170800Z 1709/1809 21003G08MPS 3100 -SHRASN BR BKN004 BKN015CB 
     TEMPO 1709/1721 23003G08MPS 1000 SHRASN BR BKN002 BKN012CB 
     FM172100 27005G10MPS 3100 -SHRASN BKN007 BKN015CB 
     TEMPO 1721/1809 1000 SHSN BR BKN003 BKN012CB
       
ULAA 170830Z 29004MPS 260V320 9999 OVC026 06/04 Q1013 R26/290060 NOSIG RMK QFE758/1011
TAF COR ULAA 170800Z 1709/1809 30006MPS 9999 BKN015 
     TEMPO 1709/1715 32007G12MPS 2100 -SHRA BKN005 BKN011CB 
     FM171500 34006MPS 6000 BKN012 
     TEMPO 1715/1809 34008G14MPS 3100 -SHSNRA BKN005 BKN011CB
       
UNNT 170830Z 13004MPS 9000 -SN SCT011 OVC030 M09/M12 Q1026 R25/490150 R16/490150 NOSIG RMK QFE759/1013
TAF UNNT 170800Z 1709/1809 12003G08MPS 9999 BKN011 
     TEMPO 1709/1806 3100 -SHSN BR BKN005 BKN011CB 
     BECMG 1806/1808 BKN020
       
UNOO 170830Z 17004MPS 2600 -SHSN BR BKN008 BKN033CB M04/M05 Q1017 R25/390533 NOSIG RMK QFE754
TAF UNOO 170752Z 1709/1809 16003G09MPS 3000 -SHSN BKN008 BKN030CB 
     TEMPO 1709/1718 0800 +SHSN VV003 
     FM171800 02003G09MPS 3100 -SHSN BR BKN006 BKN020CB 
     TEMPO 1718/1806 0500 FZFG VV003
       
UWSS 170830Z 33002MPS CAVOK 01/M12 Q1037 R30/010095 NOSIG RMK QFE764
TAF UWSS 170800Z 1709/1718 29003MPS CAVOK
       
UUDL 170830Z 24007MPS 9999 OVC010 02/00 Q1030 R23/010060 NOSIG RMK QFE764
TAF UUDL 170800Z 1709/1809 25005G10MPS 8000 OVC010 
     TEMPO 1709/1712 3500 -SNRA BKN005 OVC010 
     TEMPO 1712/1803 3100 -SNRA BKN005 OVC010 
     BECMG 1721/1723 27003MPS
       
UWUU 170830Z 27003MPS 230V290 9999 OVC017 M02/M06 Q1028 R32L/0///60 NOSIG RMK QFE758/1011
TAF UWUU 170801Z 1709/1809 26005MPS 9999 -SN OVC015 
     BECMG 1709/1711 23003G08MPS 
     TEMPO 1711/1715 3100 -SHSN -FZRA BKN011CB 
     TEMPO 1715/1809 19006G12MPS 2100 -SN -FZDZ BKN006
       
UHMA 170800Z 36005MPS 9999 -SN FEW006 SCT014 OVC043 M13/M14 Q1008 R01/////// NOSIG RMK END R01/35004MPS QFE752/1003
TAF UHMA 170741Z 1709/1809 35007G12MPS 4000 -SN BR SCT003 BKN017 
     TEMPO 1709/1809 30009G14MPS 0400 +SHSN BLSN VV002
       
URML 170830Z 35005MPS 6000 -RA SCT003 OVC012 08/07 Q1024 R32/290060 TEMPO 0500 FG SCT003 OVC011 RMK QBB100 MT OBSC QFE767/1023
TAF URML 170800Z 1709/1718 33003G10MPS 3100 -RA BR SCT005 OVC011 
     TEMPO 1709/1715 0600 FG BKN003 OVC007
       
URKA 170830Z 07007MPS 7000 -RA BKN006 01/01 Q1026 R04/290160 TEMPO 0500 +SHRASN BKN002 BKN020CB RMK QFE765/1021
TAF URKA 170756Z 1709/1809 05008G16MPS 5000 -SHSN BR BKN008 BKN020CB 
     TEMPO 1709/1714 3100 -SHSN BKN007 BKN020CB 
     FM171400 03007G14MPS 3100 BR BKN005 BKN015 
     PROB40 
     TEMPO 1714/1803 1000 FZDZ BKN003
       
UUWW 170830Z 26007MPS CAVOK 00/M12 Q1036 R24/190050 NOSIG
TAF UUWW 170750Z 1709/1809 25006G11MPS 9999 SCT020 TX01/1712Z TNM01/1802Z 
     BECMG 1714/1716 5000 -SN OVC011 
     TEMPO 1716/1809 1500 SHSN BKN005 BKN012CB
       
UWLW 170800Z 26003MPS 8000 NSC 01/M12 Q1032 R20/CLRD60 NOSIG RMK QFE769
TAF UWLW 170745Z 1709/1809 24003G08MPS 8000 BKN020 
     TEMPO 1709/1715 21005G11MPS 
     TEMPO 1715/1809 21006G13MPS 3100 -SNRA BKN011
       
UEEE 170830Z 19001MPS 9999 -SN NSC M23/M25 Q1019 R23L/490155 NOSIG RMK QFE755
TAF COR UEEE 170800Z 1709/1815 20003MPS 3200 -SHSN BKN020CB OVC070 
     TEMPO 1709/1718 1500 SHSN VV005 
     TEMPO 1718/1803 0300 SHSN FZFG VV003
       
UHPP 170800Z 01002MPS 9999 NSC M02/M08 Q1012 R34L/CLRD70 NOSIG RMK QFE756/1008
TAF UHPP 170737Z 1709/1815 36003G12MPS 9999 BKN020CB OVC050 
     TEMPO 1709/1712 0900 +SHSN VV003 
     FM171200 12003G12MPS 2100 -SHSNRA BR BKN011 OVC015CB 
     TEMPO 1712/1805 17005G17MPS 0500 +SHSNRA VV002 
     FM180500 34003G12MPS 9999 BKN015CB BKN070 
     TEMPO 1805/1810 30005G17MPS 0900 +SHSNRA VV003